createdAt,value
2017-01-25T00:00:38.900Z,0
2017-01-25T00:01:19.458Z,0
2017-01-25T00:02:00.042Z,0
2017-01-25T00:02:40.633Z,0
2017-01-25T00:03:20.952Z,0
2017-01-25T00:04:01.686Z,0
2017-01-25T00:04:42.244Z,0
2017-01-25T00:05:22.712Z,0
2017-01-25T00:06:03.279Z,0
2017-01-25T00:06:43.771Z,0
2017-01-25T00:07:24.232Z,0
2017-01-25T00:08:04.716Z,0
2017-01-25T00:08:45.232Z,0
2017-01-25T00:09:25.693Z,0
2017-01-25T00:10:06.174Z,0
2017-01-25T00:10:46.817Z,0
2017-01-25T00:11:27.250Z,0
2017-01-25T00:12:07.807Z,0
2017-01-25T00:12:48.265Z,0
2017-01-25T00:13:28.749Z,0
2017-01-25T00:14:09.271Z,0
2017-01-25T00:14:49.693Z,0
2017-01-25T00:15:30.194Z,0
2017-01-25T00:16:10.682Z,0
2017-01-25T00:16:51.211Z,0
2017-01-25T00:17:31.677Z,0
2017-01-25T00:18:12.155Z,0
2017-01-25T00:18:52.731Z,0
2017-01-25T00:19:33.145Z,0
2017-01-25T00:20:13.669Z,0
2017-01-25T00:20:54.108Z,0
2017-01-25T00:21:34.748Z,0
2017-01-25T00:22:15.136Z,0
2017-01-25T00:22:55.649Z,0
2017-01-25T00:23:36.124Z,0
2017-01-25T00:24:16.938Z,0
2017-01-25T00:24:57.430Z,0
2017-01-25T00:25:37.902Z,0
2017-01-25T00:26:18.350Z,0
2017-01-25T00:26:58.889Z,0
2017-01-25T00:27:39.356Z,0
2017-01-25T00:28:19.841Z,0
2017-01-25T00:29:00.306Z,0
2017-01-25T00:29:40.743Z,0
2017-01-25T00:30:21.282Z,0
2017-01-25T00:31:01.727Z,0
2017-01-25T00:31:42.216Z,0
2017-01-25T00:32:22.702Z,0
2017-01-25T00:33:03.242Z,0
2017-01-25T00:33:43.710Z,0
2017-01-25T00:34:24.146Z,0
2017-01-25T00:35:04.631Z,0
2017-01-25T00:35:45.162Z,0
2017-01-25T00:36:25.670Z,0
2017-01-25T00:37:06.158Z,0
2017-01-25T00:37:46.662Z,0
2017-01-25T00:38:27.124Z,0
2017-01-25T00:39:07.646Z,0
2017-01-25T00:39:48.110Z,0
2017-01-25T00:40:28.585Z,0
2017-01-25T00:41:09.077Z,0
2017-01-25T00:41:49.532Z,0
2017-01-25T00:42:30.003Z,0
2017-01-25T00:43:10.552Z,0
2017-01-25T00:43:51.018Z,0
2017-01-25T00:44:31.503Z,0
2017-01-25T00:45:11.989Z,0
2017-01-25T00:45:52.483Z,0
2017-01-25T00:46:32.910Z,0
2017-01-25T00:47:13.422Z,0
2017-01-25T00:47:53.960Z,0
2017-01-25T00:48:34.432Z,0
2017-01-25T00:49:14.916Z,0
2017-01-25T00:49:55.407Z,0
2017-01-25T00:50:35.903Z,0
2017-01-25T00:51:16.358Z,0
2017-01-25T00:51:56.838Z,0
2017-01-25T00:52:37.339Z,0
2017-01-25T00:53:17.820Z,0
2017-01-25T00:53:58.333Z,0
2017-01-25T00:54:38.866Z,0
2017-01-25T00:55:19.334Z,0
2017-01-25T00:55:59.875Z,0
2017-01-25T00:56:40.329Z,0
2017-01-25T00:57:20.791Z,0
2017-01-25T00:58:01.370Z,0
2017-01-25T00:58:41.893Z,0
2017-01-25T00:59:22.361Z,0
2017-01-25T01:00:02.894Z,0
2017-01-25T01:00:43.343Z,0
2017-01-25T01:01:23.831Z,0
2017-01-25T01:02:04.367Z,0
2017-01-25T01:02:44.895Z,0
2017-01-25T01:03:25.344Z,0
2017-01-25T01:04:05.807Z,0
2017-01-25T01:04:46.322Z,0
2017-01-25T01:05:26.868Z,0
2017-01-25T01:06:07.310Z,0
2017-01-25T01:06:47.824Z,0
2017-01-25T01:07:28.488Z,0
2017-01-25T01:08:08.826Z,0
2017-01-25T01:08:49.251Z,0
2017-01-25T01:09:29.747Z,0
2017-01-25T01:10:10.237Z,0
2017-01-25T01:10:50.720Z,0
2017-01-25T01:11:31.232Z,0
2017-01-25T01:12:11.670Z,0
2017-01-25T01:12:52.187Z,0
2017-01-25T01:13:32.685Z,0
2017-01-25T01:14:13.131Z,0
2017-01-25T01:14:53.635Z,0
2017-01-25T01:15:34.105Z,0
2017-01-25T01:16:14.653Z,0
2017-01-25T01:16:55.144Z,0
2017-01-25T01:17:35.646Z,0
2017-01-25T01:18:16.146Z,0
2017-01-25T01:18:56.670Z,0
2017-01-25T01:19:37.222Z,0
2017-01-25T01:20:17.670Z,0
2017-01-25T01:20:58.159Z,0
2017-01-25T01:21:38.701Z,0
2017-01-25T01:22:19.157Z,0
2017-01-25T01:22:59.656Z,0
2017-01-25T01:23:40.107Z,0
2017-01-25T01:24:20.620Z,0
2017-01-25T01:25:01.096Z,0
2017-01-25T01:25:41.539Z,0
2017-01-25T01:26:22.030Z,0
2017-01-25T01:27:02.511Z,0
2017-01-25T01:27:43.040Z,0
2017-01-25T01:28:23.461Z,0
2017-01-25T01:29:03.949Z,0
2017-01-25T01:29:44.437Z,0
2017-01-25T01:30:24.908Z,0
2017-01-25T01:31:05.407Z,0
2017-01-25T01:31:45.941Z,0
2017-01-25T01:32:26.373Z,0
2017-01-25T01:33:06.872Z,0
2017-01-25T01:33:47.384Z,0
2017-01-25T01:34:27.971Z,0
2017-01-25T01:35:08.390Z,0
2017-01-25T01:35:48.839Z,0
2017-01-25T01:36:29.334Z,0
2017-01-25T01:37:09.810Z,0
2017-01-25T01:37:50.290Z,0
2017-01-25T01:38:30.776Z,0
2017-01-25T01:39:11.298Z,0
2017-01-25T01:39:51.772Z,0
2017-01-25T01:40:32.292Z,0
2017-01-25T01:41:12.791Z,0
2017-01-25T01:41:53.280Z,0
2017-01-25T01:42:33.806Z,0
2017-01-25T01:43:14.303Z,0
2017-01-25T01:43:54.754Z,0
2017-01-25T01:44:35.244Z,0
2017-01-25T01:45:15.831Z,0
2017-01-25T01:45:56.193Z,0
2017-01-25T01:46:36.723Z,0
2017-01-25T01:47:17.287Z,0
2017-01-25T01:47:57.780Z,0
2017-01-25T01:48:38.277Z,0
2017-01-25T01:49:18.784Z,0
2017-01-25T01:49:59.306Z,0
2017-01-25T01:50:39.745Z,0
2017-01-25T01:51:20.228Z,0
2017-01-25T01:52:00.746Z,0
2017-01-25T01:52:41.224Z,0
2017-01-25T01:53:21.732Z,0
2017-01-25T01:54:02.313Z,0
2017-01-25T01:54:43.001Z,0
2017-01-25T01:55:23.520Z,0
2017-01-25T01:56:03.980Z,0
2017-01-25T01:56:44.486Z,0
2017-01-25T01:57:25.026Z,0
2017-01-25T01:58:05.402Z,0
2017-01-25T01:58:45.946Z,0
2017-01-25T01:59:26.438Z,0
2017-01-25T02:00:06.890Z,0
2017-01-25T02:00:47.414Z,0
2017-01-25T02:01:27.848Z,0
2017-01-25T02:02:08.332Z,0
2017-01-25T02:02:48.832Z,0
2017-01-25T02:03:29.359Z,0
2017-01-25T02:04:09.844Z,0
2017-01-25T02:04:50.280Z,0
2017-01-25T02:05:30.749Z,0
2017-01-25T02:06:11.266Z,0
2017-01-25T02:06:51.748Z,0
2017-01-25T02:07:32.244Z,0
2017-01-25T02:08:12.851Z,0
2017-01-25T02:08:53.317Z,0
2017-01-25T02:09:33.782Z,0
2017-01-25T02:10:14.292Z,0
2017-01-25T02:10:54.789Z,0
2017-01-25T02:11:35.248Z,0
2017-01-25T02:12:15.792Z,0
2017-01-25T02:12:56.294Z,0
2017-01-25T02:13:36.773Z,0
2017-01-25T02:14:17.264Z,0
2017-01-25T02:14:57.761Z,0
2017-01-25T02:15:38.292Z,0
2017-01-25T02:16:18.796Z,0
2017-01-25T02:16:59.316Z,0
2017-01-25T02:17:39.789Z,0
2017-01-25T02:18:20.268Z,0
2017-01-25T02:19:00.695Z,0
2017-01-25T02:19:41.242Z,0
2017-01-25T02:20:21.781Z,0
2017-01-25T02:21:02.208Z,0
2017-01-25T02:21:42.738Z,0
2017-01-25T02:22:23.271Z,0
2017-01-25T02:23:03.725Z,0
2017-01-25T02:25:17.198Z,0
2017-01-25T02:25:57.676Z,0
2017-01-25T02:26:38.140Z,0
2017-01-25T02:27:18.631Z,0
2017-01-25T02:28:00.964Z,0
2017-01-25T02:28:41.451Z,0
2017-01-25T02:29:21.979Z,0
2017-01-25T02:30:02.401Z,0
2017-01-25T02:30:42.913Z,0
2017-01-25T02:31:23.403Z,0
2017-01-25T02:32:03.873Z,0
2017-01-25T02:32:44.375Z,0
2017-01-25T02:33:24.807Z,0
2017-01-25T02:34:05.337Z,0
2017-01-25T02:34:45.780Z,0
2017-01-25T02:35:26.262Z,0
2017-01-25T02:36:06.748Z,0
2017-01-25T02:36:47.238Z,0
2017-01-25T02:37:27.763Z,0
2017-01-25T02:38:08.248Z,0
2017-01-25T02:38:48.713Z,0
2017-01-25T02:39:29.305Z,0
2017-01-25T02:40:09.711Z,0
2017-01-25T02:40:50.243Z,0
2017-01-25T02:41:30.721Z,0
2017-01-25T02:42:11.249Z,0
2017-01-25T02:42:51.693Z,0
2017-01-25T02:43:32.191Z,0
2017-01-25T02:44:12.667Z,0
2017-01-25T02:44:53.166Z,0
2017-01-25T02:45:33.602Z,0
2017-01-25T02:46:14.088Z,0
2017-01-25T02:46:54.634Z,0
2017-01-25T02:47:35.060Z,0
2017-01-25T02:48:15.553Z,0
2017-01-25T02:48:56.022Z,0
2017-01-25T02:49:36.502Z,0
2017-01-25T02:50:17.076Z,0
2017-01-25T02:50:57.544Z,0
2017-01-25T02:51:38.004Z,0
2017-01-25T02:52:18.433Z,0
2017-01-25T02:52:58.919Z,0
2017-01-25T02:53:39.429Z,0
2017-01-25T02:54:19.927Z,0
2017-01-25T02:55:00.395Z,0
2017-01-25T02:55:40.973Z,0
2017-01-25T02:56:21.375Z,0
2017-01-25T02:57:01.838Z,0
2017-01-25T02:57:42.324Z,0
2017-01-25T02:58:22.964Z,0
2017-01-25T02:59:03.521Z,0
2017-01-25T02:59:44.004Z,0
2017-01-25T03:00:24.438Z,0
2017-01-25T03:01:04.895Z,0
2017-01-25T03:01:45.380Z,0
2017-01-25T03:02:25.868Z,0
2017-01-25T03:03:06.378Z,0
2017-01-25T03:03:46.878Z,0
2017-01-25T03:04:27.310Z,0
2017-01-25T03:05:07.797Z,0
2017-01-25T03:05:48.463Z,0
2017-01-25T03:06:28.935Z,0
2017-01-25T03:07:09.450Z,0
2017-01-25T03:07:49.922Z,0
2017-01-25T03:08:30.424Z,0
2017-01-25T03:09:10.920Z,0
2017-01-25T03:09:51.435Z,0
2017-01-25T03:10:31.952Z,0
2017-01-25T03:11:12.410Z,0
2017-01-25T03:11:52.930Z,0
2017-01-25T03:12:33.390Z,0
2017-01-25T03:13:13.905Z,0
2017-01-25T03:13:54.370Z,0
2017-01-25T03:14:34.859Z,0
2017-01-25T03:15:15.324Z,0
2017-01-25T03:15:55.854Z,0
2017-01-25T03:16:36.303Z,0
2017-01-25T03:17:16.780Z,0
2017-01-25T03:17:57.276Z,0
2017-01-25T03:18:37.906Z,0
2017-01-25T03:19:18.375Z,0
2017-01-25T03:19:58.872Z,0
2017-01-25T03:20:39.335Z,0
2017-01-25T03:21:19.807Z,0
2017-01-25T03:22:00.327Z,0
2017-01-25T03:22:40.751Z,0
2017-01-25T03:23:21.249Z,0
2017-01-25T03:24:01.693Z,0
2017-01-25T03:24:42.233Z,0
2017-01-25T03:25:22.656Z,0
2017-01-25T03:26:03.211Z,0
2017-01-25T03:26:43.771Z,0
2017-01-25T03:27:24.287Z,0
2017-01-25T03:28:04.767Z,0
2017-01-25T03:28:45.276Z,0
2017-01-25T03:29:25.761Z,0
2017-01-25T03:30:06.285Z,0
2017-01-25T03:30:46.781Z,0
2017-01-25T03:31:27.272Z,0
2017-01-25T03:32:07.735Z,0
2017-01-25T03:32:48.269Z,0
2017-01-25T03:33:28.731Z,0
2017-01-25T03:34:09.209Z,0
2017-01-25T03:34:49.685Z,0
2017-01-25T03:35:30.164Z,0
2017-01-25T03:36:10.641Z,0
2017-01-25T03:36:51.133Z,0
2017-01-25T03:37:31.613Z,0
2017-01-25T03:38:12.094Z,0
2017-01-25T03:38:52.582Z,0
2017-01-25T03:39:33.121Z,0
2017-01-25T03:40:13.581Z,0
2017-01-25T03:40:54.121Z,0
2017-01-25T03:41:34.565Z,0
2017-01-25T03:42:15.076Z,0
2017-01-25T03:42:55.584Z,0
2017-01-25T03:43:36.135Z,0
2017-01-25T03:44:16.592Z,0
2017-01-25T03:44:57.182Z,0
2017-01-25T03:45:37.662Z,0
2017-01-25T03:46:18.111Z,0
2017-01-25T03:46:58.570Z,0
2017-01-25T03:47:39.109Z,0
2017-01-25T03:48:19.587Z,0
2017-01-25T03:49:00.098Z,0
2017-01-25T03:49:40.584Z,0
2017-01-25T03:50:21.061Z,0
2017-01-25T03:51:01.555Z,0
2017-01-25T03:51:42.063Z,0
2017-01-25T03:52:22.527Z,0
2017-01-25T03:53:03.022Z,0
2017-01-25T03:53:43.504Z,0
2017-01-25T03:54:24.134Z,0
2017-01-25T03:55:04.462Z,0
2017-01-25T03:55:44.894Z,0
2017-01-25T03:56:25.412Z,0
2017-01-25T03:57:05.882Z,0
2017-01-25T03:57:46.403Z,0
2017-01-25T03:58:26.884Z,0
2017-01-25T03:59:07.364Z,0
2017-01-25T03:59:47.909Z,0
2017-01-25T04:00:28.573Z,0
2017-01-25T04:01:09.068Z,0
2017-01-25T04:01:49.564Z,0
2017-01-25T04:02:30.082Z,0
2017-01-25T04:03:10.601Z,0
2017-01-25T04:03:51.051Z,0
2017-01-25T04:04:31.560Z,0
2017-01-25T04:05:12.039Z,0
2017-01-25T04:05:52.520Z,0
2017-01-25T04:06:32.992Z,0
2017-01-25T04:07:13.472Z,0
2017-01-25T04:07:53.979Z,0
2017-01-25T04:08:34.427Z,0
2017-01-25T04:09:15.708Z,0
2017-01-25T04:09:56.269Z,0
2017-01-25T04:10:36.762Z,0
2017-01-25T04:11:17.288Z,0
2017-01-25T04:11:57.744Z,0
2017-01-25T04:12:38.317Z,0
2017-01-25T04:13:18.682Z,0
2017-01-25T04:13:59.238Z,0
2017-01-25T04:14:39.711Z,0
2017-01-25T04:15:20.330Z,0
2017-01-25T04:16:00.782Z,0
2017-01-25T04:16:41.304Z,0
2017-01-25T04:17:21.791Z,0
2017-01-25T04:18:02.383Z,0
2017-01-25T04:18:42.848Z,0
2017-01-25T04:19:23.309Z,0
2017-01-25T04:20:03.778Z,0
2017-01-25T04:20:44.280Z,0
2017-01-25T04:21:24.773Z,0
2017-01-25T04:22:05.244Z,0
2017-01-25T04:22:45.755Z,0
2017-01-25T04:23:26.228Z,0
2017-01-25T04:24:06.700Z,0
2017-01-25T04:24:47.204Z,0
2017-01-25T04:25:27.725Z,0
2017-01-25T04:26:08.196Z,0
2017-01-25T04:26:48.647Z,0
2017-01-25T04:27:29.129Z,0
2017-01-25T04:28:09.742Z,0
2017-01-25T04:28:50.230Z,0
2017-01-25T04:29:30.692Z,0
2017-01-25T04:30:11.194Z,0
2017-01-25T04:30:51.689Z,0
2017-01-25T04:31:32.294Z,0
2017-01-25T04:32:12.789Z,0
2017-01-25T04:32:53.314Z,0
2017-01-25T04:33:33.807Z,0
2017-01-25T04:34:14.283Z,0
2017-01-25T04:34:54.754Z,0
2017-01-25T04:35:35.268Z,0
2017-01-25T04:36:15.732Z,0
2017-01-25T04:36:56.297Z,0
2017-01-25T04:37:36.717Z,0
2017-01-25T04:38:17.233Z,0
2017-01-25T04:38:57.694Z,0
2017-01-25T04:39:38.220Z,0
2017-01-25T04:40:18.679Z,0
2017-01-25T04:40:59.177Z,0
2017-01-25T04:41:39.653Z,0
2017-01-25T04:42:20.119Z,0
2017-01-25T04:43:00.665Z,0
2017-01-25T04:43:41.791Z,0
2017-01-25T04:44:22.319Z,0
2017-01-25T04:45:02.803Z,0
2017-01-25T04:45:43.278Z,0
2017-01-25T04:46:23.746Z,0
2017-01-25T04:47:04.340Z,0
2017-01-25T04:47:44.908Z,0
2017-01-25T04:48:25.467Z,0
2017-01-25T04:49:05.950Z,0
2017-01-25T04:49:46.446Z,0
2017-01-25T04:50:26.897Z,0
2017-01-25T04:51:07.440Z,0
2017-01-25T04:51:47.917Z,0
2017-01-25T04:52:28.395Z,0
2017-01-25T04:53:08.889Z,0
2017-01-25T04:53:49.334Z,0
2017-01-25T04:54:29.864Z,0
2017-01-25T04:55:10.373Z,0
2017-01-25T04:55:51.049Z,0
2017-01-25T04:56:31.586Z,0
2017-01-25T04:57:12.131Z,0
2017-01-25T04:57:52.617Z,0
2017-01-25T04:58:33.130Z,0
2017-01-25T04:59:13.665Z,0
2017-01-25T04:59:54.126Z,0
2017-01-25T05:00:34.639Z,0
2017-01-25T05:01:15.090Z,0
2017-01-25T05:01:55.577Z,0
2017-01-25T05:02:36.083Z,0
2017-01-25T05:03:16.527Z,0
2017-01-25T05:03:57.274Z,0
2017-01-25T05:04:37.735Z,0
2017-01-25T05:05:18.238Z,0
2017-01-25T05:05:58.840Z,0
2017-01-25T05:06:39.386Z,0
2017-01-25T05:07:19.837Z,0
2017-01-25T05:08:00.352Z,0
2017-01-25T05:08:40.882Z,0
2017-01-25T05:09:21.323Z,0
2017-01-25T05:10:01.848Z,0
2017-01-25T05:10:42.307Z,0
2017-01-25T05:11:22.812Z,0
2017-01-25T05:12:03.390Z,0
2017-01-25T05:12:43.841Z,0
2017-01-25T05:13:24.490Z,0
2017-01-25T05:14:04.992Z,0
2017-01-25T05:14:45.477Z,0
2017-01-25T05:15:26.011Z,0
2017-01-25T05:16:06.513Z,0
2017-01-25T05:16:46.971Z,0
2017-01-25T05:17:27.464Z,0
2017-01-25T05:18:07.976Z,0
2017-01-25T05:18:48.500Z,0
2017-01-25T05:19:28.966Z,0
2017-01-25T05:20:09.480Z,0
2017-01-25T05:20:49.925Z,0
2017-01-25T05:21:30.521Z,0
2017-01-25T05:22:10.972Z,0
2017-01-25T05:22:51.484Z,0
2017-01-25T05:23:31.981Z,0
2017-01-25T05:24:12.405Z,0
2017-01-25T05:24:52.935Z,0
2017-01-25T05:25:33.489Z,0
2017-01-25T05:26:13.861Z,0
2017-01-25T05:26:54.405Z,0
2017-01-25T05:27:34.867Z,0
2017-01-25T05:28:15.379Z,0
2017-01-25T05:28:55.872Z,0
2017-01-25T05:29:36.377Z,0
2017-01-25T05:30:16.906Z,0
2017-01-25T05:30:57.354Z,0
2017-01-25T05:31:38.763Z,0
2017-01-25T05:32:19.280Z,0
2017-01-25T05:32:59.756Z,0
2017-01-25T05:33:40.207Z,0
2017-01-25T05:34:20.737Z,0
2017-01-25T05:35:01.195Z,0
2017-01-25T05:35:41.716Z,0
2017-01-25T05:36:22.204Z,0
2017-01-25T05:37:02.686Z,0
2017-01-25T05:37:43.157Z,0
2017-01-25T05:38:23.945Z,0
2017-01-25T05:39:04.399Z,0
2017-01-25T05:39:44.979Z,0
2017-01-25T05:40:25.485Z,0
2017-01-25T05:41:05.983Z,0
2017-01-25T05:41:46.504Z,0
2017-01-25T05:42:27.115Z,0
2017-01-25T05:43:07.525Z,0
2017-01-25T05:43:48.002Z,0
2017-01-25T05:44:28.609Z,0
2017-01-25T05:45:09.058Z,0
2017-01-25T05:45:49.603Z,0
2017-01-25T05:46:30.148Z,0
2017-01-25T05:47:10.691Z,0
2017-01-25T05:47:51.079Z,0
2017-01-25T05:48:31.631Z,0
2017-01-25T05:49:12.156Z,0
2017-01-25T05:49:52.625Z,0
2017-01-25T05:50:33.082Z,0
2017-01-25T05:51:13.576Z,0
2017-01-25T05:51:54.063Z,0
2017-01-25T05:52:34.542Z,0
2017-01-25T05:53:15.098Z,0
2017-01-25T05:53:55.831Z,0
2017-01-25T05:54:36.341Z,0
2017-01-25T05:55:16.851Z,0
2017-01-25T05:55:57.297Z,0
2017-01-25T05:56:37.777Z,0
2017-01-25T05:57:18.332Z,0
2017-01-25T05:57:59.398Z,0
2017-01-25T05:58:39.916Z,0
2017-01-25T05:59:20.384Z,0
2017-01-25T06:00:00.866Z,0
2017-01-25T06:00:41.363Z,0
2017-01-25T06:01:21.873Z,0
2017-01-25T06:02:02.308Z,0
2017-01-25T06:02:43.032Z,0
2017-01-25T06:03:23.434Z,0
2017-01-25T06:04:03.963Z,0
2017-01-25T06:04:44.657Z,0
2017-01-25T06:05:25.246Z,0
2017-01-25T06:06:05.686Z,0
2017-01-25T06:06:46.140Z,0
2017-01-25T06:07:26.645Z,0
2017-01-25T06:08:07.101Z,0
2017-01-25T06:08:47.629Z,0
2017-01-25T06:09:28.131Z,0
2017-01-25T06:10:08.613Z,0
2017-01-25T06:10:49.103Z,0
2017-01-25T06:11:29.672Z,0
2017-01-25T06:12:10.200Z,0
2017-01-25T06:12:50.656Z,0
2017-01-25T06:13:31.171Z,0
2017-01-25T06:14:11.782Z,0
2017-01-25T06:14:55.074Z,0
2017-01-25T06:15:42.960Z,0
2017-01-25T06:16:25.542Z,0
2017-01-25T06:17:08.619Z,0
2017-01-25T06:17:51.597Z,0
2017-01-25T06:18:38.767Z,0
2017-01-25T06:19:20.054Z,0
2017-01-25T06:20:00.363Z,0
2017-01-25T06:24:32.042Z,0
2017-01-25T06:27:04.636Z,0
2017-01-25T06:27:45.858Z,0
2017-01-25T06:28:27.672Z,0
2017-01-25T06:29:08.374Z,0
2017-01-25T06:29:52.757Z,0
2017-01-25T06:30:34.360Z,0
2017-01-25T06:31:15.417Z,0
2017-01-25T06:31:55.930Z,0
2017-01-25T06:32:37.275Z,0
2017-01-25T06:33:21.295Z,0
2017-01-25T06:34:02.118Z,0
2017-01-25T06:34:45.373Z,0
2017-01-25T06:35:27.654Z,0
2017-01-25T06:36:09.586Z,0
2017-01-25T06:36:50.644Z,0
2017-01-25T06:37:32.056Z,0
2017-01-25T06:38:12.535Z,0
2017-01-25T06:38:53.011Z,0
2017-01-25T06:39:33.525Z,0
2017-01-25T06:40:13.942Z,0
2017-01-25T06:40:54.426Z,0
2017-01-25T06:41:34.885Z,0
2017-01-25T06:42:15.378Z,0
2017-01-25T06:42:55.872Z,0
2017-01-25T06:43:36.390Z,0
2017-01-25T06:44:16.868Z,0
2017-01-25T06:44:57.535Z,0
2017-01-25T06:45:37.990Z,0
2017-01-25T06:46:18.581Z,0
2017-01-25T06:46:59.037Z,0
2017-01-25T06:47:39.499Z,0
2017-01-25T06:48:20.060Z,0
2017-01-25T06:49:00.624Z,0
2017-01-25T06:49:41.109Z,0
2017-01-25T06:50:21.625Z,0
2017-01-25T06:51:02.097Z,0
2017-01-25T06:51:42.721Z,0
2017-01-25T06:52:23.184Z,0
2017-01-25T06:53:03.666Z,0
2017-01-25T06:53:44.164Z,0
2017-01-25T06:54:24.770Z,0
2017-01-25T06:55:05.260Z,0
2017-01-25T06:55:45.828Z,0
2017-01-25T06:56:26.210Z,0
2017-01-25T06:57:06.720Z,0
2017-01-25T06:57:47.253Z,0
2017-01-25T06:58:27.712Z,0
2017-01-25T06:59:08.215Z,0
2017-01-25T06:59:48.764Z,0
2017-01-25T07:00:29.223Z,0
2017-01-25T07:01:09.696Z,0
2017-01-25T07:01:50.158Z,0
2017-01-25T07:02:30.659Z,0
2017-01-25T07:03:11.165Z,0
2017-01-25T07:03:51.618Z,0
2017-01-25T07:04:32.166Z,0
2017-01-25T07:05:12.636Z,0
2017-01-25T07:05:53.166Z,0
2017-01-25T07:06:33.602Z,0
2017-01-25T07:07:14.144Z,0
2017-01-25T07:07:54.663Z,0
2017-01-25T07:08:35.134Z,0
2017-01-25T07:09:15.644Z,0
2017-01-25T07:09:56.154Z,0
2017-01-25T07:10:36.630Z,0
2017-01-25T07:11:17.095Z,0
2017-01-25T07:11:57.617Z,0
2017-01-25T07:12:38.083Z,0
2017-01-25T07:13:18.559Z,0
2017-01-25T07:13:59.528Z,0
2017-01-25T07:14:40.088Z,0
2017-01-25T07:15:20.453Z,0
2017-01-25T07:16:00.948Z,0
2017-01-25T07:16:41.448Z,0
2017-01-25T07:17:21.933Z,0
2017-01-25T07:18:02.460Z,0
2017-01-25T07:18:42.871Z,0
2017-01-25T07:19:23.541Z,0
2017-01-25T07:20:04.051Z,0
2017-01-25T07:20:44.481Z,0
2017-01-25T07:21:24.936Z,0
2017-01-25T07:22:05.512Z,0
2017-01-25T07:22:45.927Z,0
2017-01-25T07:23:26.394Z,0
2017-01-25T07:24:06.915Z,0
2017-01-25T07:24:47.497Z,0
2017-01-25T07:25:27.939Z,0
2017-01-25T07:26:08.458Z,0
2017-01-25T07:26:48.897Z,0
2017-01-25T07:27:29.425Z,0
2017-01-25T07:28:09.965Z,0
2017-01-25T07:28:50.504Z,0
2017-01-25T07:29:30.963Z,0
2017-01-25T07:30:11.442Z,0
2017-01-25T07:30:51.965Z,0
2017-01-25T07:31:32.427Z,0
2017-01-25T07:32:12.969Z,0
2017-01-25T07:32:53.478Z,5
2017-01-25T07:33:33.951Z,5
2017-01-25T07:34:14.436Z,5
2017-01-25T07:34:55.009Z,5
2017-01-25T07:35:35.448Z,5
2017-01-25T07:36:15.924Z,5
2017-01-25T07:36:56.397Z,5
2017-01-25T07:37:36.851Z,5
2017-01-25T07:38:17.311Z,5
2017-01-25T07:38:57.827Z,5
2017-01-25T07:39:38.450Z,5
2017-01-25T07:40:18.888Z,5
2017-01-25T07:40:59.355Z,5
2017-01-25T07:41:39.810Z,5
2017-01-25T07:42:20.253Z,5
2017-01-25T07:43:01.662Z,5
2017-01-25T07:43:42.120Z,5
2017-01-25T07:44:22.599Z,5
2017-01-25T07:45:03.126Z,5
2017-01-25T07:45:43.572Z,5
2017-01-25T07:46:24.061Z,5
2017-01-25T07:47:04.696Z,5
2017-01-25T07:47:45.064Z,5
2017-01-25T07:48:25.578Z,5
2017-01-25T07:49:06.091Z,5
2017-01-25T07:49:46.533Z,5
2017-01-25T07:50:27.054Z,5
2017-01-25T07:51:07.583Z,5
2017-01-25T07:51:48.160Z,5
2017-01-25T07:52:28.639Z,5
2017-01-25T07:53:09.145Z,10
2017-01-25T07:53:49.703Z,10
2017-01-25T07:54:30.222Z,10
2017-01-25T07:55:10.689Z,10
2017-01-25T07:55:51.127Z,10
2017-01-25T07:56:31.705Z,10
2017-01-25T07:57:12.232Z,10
2017-01-25T07:57:52.680Z,10
2017-01-25T07:58:33.187Z,10
2017-01-25T07:59:13.641Z,10
2017-01-25T07:59:54.141Z,10
2017-01-25T08:00:34.887Z,10
2017-01-25T08:01:15.384Z,10
2017-01-25T08:01:55.854Z,10
2017-01-25T08:02:36.354Z,10
2017-01-25T08:03:16.858Z,10
2017-01-25T08:03:57.379Z,10
2017-01-25T08:04:37.846Z,10
2017-01-25T08:05:18.304Z,10
2017-01-25T08:05:58.830Z,10
2017-01-25T08:06:39.272Z,10
2017-01-25T08:07:19.850Z,10
2017-01-25T08:08:00.233Z,10
2017-01-25T08:08:40.729Z,10
2017-01-25T08:09:21.222Z,15
2017-01-25T08:10:01.772Z,15
2017-01-25T08:10:42.248Z,15
2017-01-25T08:11:22.838Z,15
2017-01-25T08:12:03.239Z,15
2017-01-25T08:12:43.739Z,15
2017-01-25T08:13:24.201Z,15
2017-01-25T08:14:04.667Z,15
2017-01-25T08:14:45.152Z,15
2017-01-25T08:15:25.655Z,15
2017-01-25T08:16:06.173Z,15
2017-01-25T08:16:46.678Z,15
2017-01-25T08:17:27.202Z,15
2017-01-25T08:18:07.670Z,15
2017-01-25T08:18:48.166Z,15
2017-01-25T08:19:28.748Z,15
2017-01-25T08:20:09.292Z,15
2017-01-25T08:20:49.707Z,15
2017-01-25T08:21:30.218Z,15
2017-01-25T08:22:10.746Z,15
2017-01-25T08:22:51.231Z,15
2017-01-25T08:23:31.696Z,15
2017-01-25T08:24:12.195Z,15
2017-01-25T08:24:52.701Z,15
2017-01-25T08:25:33.180Z,15
2017-01-25T08:26:13.628Z,20
2017-01-25T08:26:54.141Z,20
2017-01-25T08:27:34.635Z,20
2017-01-25T08:28:15.108Z,20
2017-01-25T08:28:55.657Z,20
2017-01-25T08:29:36.104Z,20
2017-01-25T08:30:16.644Z,20
2017-01-25T08:30:57.169Z,20
2017-01-25T08:31:37.692Z,20
2017-01-25T08:32:18.100Z,20
2017-01-25T08:32:58.592Z,20
2017-01-25T08:33:39.089Z,20
2017-01-25T08:34:19.626Z,20
2017-01-25T08:35:00.095Z,20
2017-01-25T08:35:40.534Z,20
2017-01-25T08:36:21.090Z,20
2017-01-25T08:37:01.555Z,20
2017-01-25T08:37:42.108Z,20
2017-01-25T08:38:22.651Z,20
2017-01-25T08:39:03.206Z,20
2017-01-25T08:39:43.626Z,20
2017-01-25T08:40:24.124Z,20
2017-01-25T08:41:04.631Z,20
2017-01-25T08:41:45.116Z,20
2017-01-25T08:42:25.619Z,20
2017-01-25T08:43:06.120Z,20
2017-01-25T08:43:46.644Z,20
2017-01-25T08:44:27.117Z,20
2017-01-25T08:45:07.577Z,20
2017-01-25T08:45:48.086Z,20
2017-01-25T08:46:28.607Z,20
2017-01-25T08:47:09.102Z,20
2017-01-25T08:47:49.627Z,20
2017-01-25T08:48:30.119Z,20
2017-01-25T08:49:10.599Z,20
2017-01-25T08:49:51.098Z,20
2017-01-25T08:50:31.586Z,20
2017-01-25T08:51:12.106Z,25
2017-01-25T08:51:52.619Z,25
2017-01-25T08:52:33.063Z,25
2017-01-25T08:53:13.549Z,25
2017-01-25T08:53:53.996Z,20
2017-01-25T08:54:34.556Z,20
2017-01-25T08:55:15.019Z,20
2017-01-25T08:55:55.522Z,20
2017-01-25T08:56:35.986Z,20
2017-01-25T08:57:16.486Z,20
2017-01-25T08:57:56.998Z,20
2017-01-25T08:58:37.498Z,20
2017-01-25T09:00:55.917Z,20
2017-01-25T09:01:36.343Z,20
2017-01-25T09:02:16.904Z,20
2017-01-25T09:02:57.337Z,20
2017-01-25T09:03:37.864Z,20
2017-01-25T09:04:18.319Z,20
2017-01-25T09:04:58.810Z,20
2017-01-25T09:05:39.518Z,25
2017-01-25T09:06:19.998Z,25
2017-01-25T09:07:00.554Z,25
2017-01-25T09:07:40.964Z,25
2017-01-25T09:08:21.463Z,25
2017-01-25T09:09:01.936Z,25
2017-01-25T09:09:42.482Z,25
2017-01-25T09:10:22.968Z,25
2017-01-25T09:11:03.656Z,25
2017-01-25T09:11:44.147Z,25
2017-01-25T09:12:24.716Z,25
2017-01-25T09:13:05.183Z,25
2017-01-25T09:13:45.658Z,25
2017-01-25T09:14:26.230Z,30
2017-01-25T09:15:06.693Z,30
2017-01-25T09:15:47.204Z,30
2017-01-25T09:16:27.703Z,30
2017-01-25T09:17:08.144Z,25
2017-01-25T09:17:48.611Z,25
2017-01-25T09:18:29.153Z,30
2017-01-25T09:19:09.652Z,30
2017-01-25T09:19:50.154Z,30
2017-01-25T09:20:30.694Z,30
2017-01-25T09:21:11.140Z,30
2017-01-25T09:21:51.612Z,30
2017-01-25T09:22:32.096Z,30
2017-01-25T09:23:12.733Z,30
2017-01-25T09:23:53.162Z,30
2017-01-25T09:24:33.747Z,35
2017-01-25T09:25:14.192Z,35
2017-01-25T09:25:54.900Z,30
2017-01-25T09:26:35.487Z,30
2017-01-25T09:27:15.897Z,30
2017-01-25T09:27:56.404Z,30
2017-01-25T09:28:36.881Z,30
2017-01-25T09:29:17.339Z,30
2017-01-25T09:29:57.866Z,30
2017-01-25T09:30:38.334Z,25
2017-01-25T09:31:18.834Z,25
2017-01-25T09:31:59.327Z,30
2017-01-25T09:32:39.861Z,30
2017-01-25T09:33:20.314Z,30
2017-01-25T09:34:00.868Z,30
2017-01-25T09:34:41.340Z,30
2017-01-25T09:35:21.826Z,30
2017-01-25T09:36:02.339Z,30
2017-01-25T09:36:42.777Z,35
2017-01-25T09:37:23.292Z,35
2017-01-25T09:38:03.832Z,35
2017-01-25T09:38:44.292Z,35
2017-01-25T09:39:24.963Z,35
2017-01-25T09:40:05.355Z,35
2017-01-25T09:40:45.890Z,35
2017-01-25T09:41:26.418Z,35
2017-01-25T09:42:06.823Z,35
2017-01-25T09:42:47.326Z,35
2017-01-25T09:43:27.777Z,35
2017-01-25T09:44:08.268Z,35
2017-01-25T09:44:48.751Z,35
2017-01-25T09:45:29.227Z,35
2017-01-25T09:46:09.893Z,35
2017-01-25T09:46:50.403Z,35
2017-01-25T09:47:30.921Z,35
2017-01-25T09:48:11.364Z,35
2017-01-25T09:48:51.836Z,35
2017-01-25T09:49:32.381Z,35
2017-01-25T09:50:12.864Z,35
2017-01-25T09:50:53.377Z,35
2017-01-25T09:51:33.830Z,35
2017-01-25T09:52:14.334Z,35
2017-01-25T09:52:54.806Z,30
2017-01-25T09:53:35.289Z,30
2017-01-25T09:54:15.813Z,30
2017-01-25T09:54:56.320Z,30
2017-01-25T09:55:36.766Z,30
2017-01-25T09:56:17.233Z,30
2017-01-25T09:56:57.747Z,30
2017-01-25T09:57:38.228Z,30
2017-01-25T09:58:18.736Z,35
2017-01-25T09:58:59.146Z,30
2017-01-25T09:59:39.699Z,30
2017-01-25T10:00:20.136Z,35
2017-01-25T10:01:00.798Z,35
2017-01-25T10:01:41.232Z,35
2017-01-25T10:02:21.712Z,35
2017-01-25T10:03:02.247Z,40
2017-01-25T10:03:42.686Z,35
2017-01-25T10:04:23.160Z,35